Time;durP1;ratioP1;P1;durP2;ratioP2;P2;SDS_P1;SDS_P2;PMS_P1;PMS_P2;Temp;Humidity;BMP_temperature;BMP_pressure;BME280_temperature;BME280_humidity;BME280_pressure;Samples;Min_cycle;Max_cycle;Signal;HPM_P1;HPM_P2
2024/03/08 00:00:12;;;;;;;7.47;4.18;;;;;;;-1.86;50.92;99995.88;4782411;29;20153;-77
2024/03/08 00:02:39;;;;;;;9.05;4.38;;;;;;;-1.71;50.50;100033.97;4786600;29;20050;-77
2024/03/08 00:05:08;;;;;;;6.57;4.38;;;;;;;-2.05;50.64;99994.19;4786347;29;20058;-79
2024/03/08 00:07:38;;;;;;;10.95;4.82;;;;;;;-2.35;50.75;99930.81;4781024;29;20506;-80
2024/03/08 00:10:07;;;;;;;7.63;4.10;;;;;;;-2.21;50.77;99962.91;4782309;29;20458;-75
2024/03/08 00:12:35;;;;;;;6.55;4.00;;;;;;;-2.69;50.60;99885.94;4779921;29;20111;-78
2024/03/08 00:15:01;;;;;;;6.47;4.45;;;;;;;-2.30;50.77;99975.22;4780013;29;20050;-78
2024/03/08 00:17:29;;;;;;;6.32;4.40;;;;;;;-2.85;51.29;99869.97;4780516;29;20050;-77
2024/03/08 00:19:55;;;;;;;7.63;4.32;;;;;;;-2.27;50.97;99986.44;4756856;29;20043;-78
2024/03/08 00:22:22;;;;;;;6.25;4.00;;;;;;;-2.45;51.13;99958.41;4762393;29;20143;-78
2024/03/08 00:24:50;;;;;;;6.47;4.25;;;;;;;-2.41;51.13;99949.22;4779566;29;20074;-76
2024/03/08 00:27:16;;;;;;;9.30;4.80;;;;;;;-2.29;50.86;99987.16;4780722;29;20053;-75
2024/03/08 00:29:42;;;;;;;10.45;4.60;;;;;;;-2.83;51.18;99898.94;4792912;29;20423;-76
2024/03/08 00:32:09;;;;;;;8.52;4.60;;;;;;;-2.22;51.15;100003.63;4762695;29;20055;-76
2024/03/08 00:34:36;;;;;;;11.02;4.43;;;;;;;-2.58;51.14;99968.88;4778516;29;20054;-78
2024/03/08 00:37:04;;;;;;;7.90;4.43;;;;;;;-2.48;51.30;99999.06;4760905;29;20050;-76
2024/03/08 00:39:30;;;;;;;8.07;4.15;;;;;;;-2.75;51.15;99956.19;4795889;29;20119;-76
2024/03/08 00:41:56;;;;;;;7.35;4.45;;;;;;;-2.74;51.41;99964.72;4796866;29;20057;-76
2024/03/08 00:44:23;;;;;;;9.15;4.50;;;;;;;-2.56;51.53;99997.84;4780872;29;20053;-77
2024/03/08 00:46:49;;;;;;;12.18;4.80;;;;;;;-2.76;51.72;99992.66;4777914;29;20085;-76
2024/03/08 00:49:16;;;;;;;7.80;4.28;;;;;;;-2.71;51.81;99980.16;4806183;29;20046;-76
2024/03/08 00:51:43;;;;;;;5.68;3.60;;;;;;;-2.57;51.73;100014.78;4791778;29;20047;-76
2024/03/08 00:54:09;;;;;;;7.05;4.20;;;;;;;-3.30;52.15;99889.91;4810010;29;20457;-76
2024/03/08 00:56:35;;;;;;;7.38;4.07;;;;;;;-2.91;52.71;99941.88;4808702;29;20094;-75
2024/03/08 00:59:02;;;;;;;10.80;4.50;;;;;;;-2.53;52.30;100014.94;4795191;29;20509;-74
2024/03/08 01:01:28;;;;;;;9.15;4.35;;;;;;;-2.97;51.88;99938.13;4785042;29;20136;-74
2024/03/08 01:03:54;;;;;;;8.60;4.03;;;;;;;-2.61;52.13;99996.75;4805635;29;20054;-74
2024/03/08 01:06:21;;;;;;;7.45;4.30;;;;;;;-3.00;51.96;99931.22;4807094;29;20103;-79
2024/03/08 01:08:46;;;;;;;8.40;3.90;;;;;;;-3.02;52.11;99932.81;4777196;29;20047;-77
2024/03/08 01:11:14;;;;;;;8.95;4.13;;;;;;;-2.73;52.21;99985.16;4792664;29;20046;-76
2024/03/08 01:13:40;;;;;;;9.60;4.03;;;;;;;-2.92;52.31;99947.75;4776187;29;20046;-77
2024/03/08 01:16:06;;;;;;;6.05;3.70;;;;;;;-2.66;52.52;99977.81;4792349;29;20553;-76
2024/03/08 01:18:32;;;;;;;8.50;4.20;;;;;;;-3.09;52.59;99888.38;4809834;29;20046;-75
2024/03/08 01:20:58;;;;;;;7.25;4.22;;;;;;;-2.46;52.40;99966.00;4807936;29;20061;-76
2024/03/08 01:23:24;;;;;;;8.75;4.13;;;;;;;-2.78;52.39;99894.03;4775378;29;20070;-77
2024/03/08 01:25:56;;;;;;;6.20;3.75;;;;;;;-2.15;52.38;99967.38;4777032;29;20047;-77
2024/03/08 01:28:24;;;;;;;;;;;;;;;-2.04;52.33;99965.31;4791825;29;20054;-78
2024/03/08 01:30:55;;;;;;;7.00;3.55;;;;;;;-2.10;52.08;99935.31;4791551;29;19964;-76
2024/03/08 01:33:23;;;;;;;8.43;3.63;;;;;;;-2.73;52.08;99819.56;4790348;29;20045;-78
2024/03/08 01:35:49;;;;;;;5.97;3.40;;;;;;;-2.52;52.14;99823.84;4805650;29;20054;-75
2024/03/08 01:38:15;;;;;;;6.80;3.80;;;;;;;-1.75;52.32;99917.25;4777063;29;20058;-79
2024/03/08 01:40:42;;;;;;;7.97;3.67;;;;;;;-1.46;52.13;99950.81;4777293;29;20050;-77
2024/03/08 01:43:29;;;;;;;6.15;3.60;;;;;;;-1.88;51.73;99878.47;4805884;29;20057;-77
2024/03/08 01:45:59;;;;;;;6.90;4.00;;;;;;;-1.39;52.40;99952.78;4767588;29;20047;-77
2024/03/08 01:48:29;;;;;;;7.72;3.58;;;;;;;-1.38;51.45;99955.44;4790455;29;20058;-77
2024/03/08 01:50:57;;;;;;;6.07;3.78;;;;;;;-1.62;51.58;99911.00;4766711;29;20153;-77
2024/03/08 01:53:26;;;;;;;6.20;3.45;;;;;;;-1.58;51.63;99921.38;4793608;29;20070;-81
2024/03/08 01:55:57;;;;;;;7.57;4.13;;;;;;;-1.44;52.07;99956.84;4800441;29;20046;-78
2024/03/08 01:58:26;;;;;;;7.28;3.67;;;;;;;-1.94;52.13;99880.75;4791849;29;20050;-75
2024/03/08 02:00:53;;;;;;;6.78;3.60;;;;;;;-1.63;51.74;99933.06;4807137;29;20073;-76
2024/03/08 02:03:19;;;;;;;6.30;3.42;;;;;;;-1.63;51.49;99945.84;4768315;29;20055;-76
2024/03/08 02:05:45;;;;;;;5.68;3.42;;;;;;;-1.99;51.61;99865.28;4795095;29;20089;-77
2024/03/08 02:08:14;;;;;;;7.72;3.90;;;;;;;-1.45;52.21;99945.75;4803921;29;20489;-78
2024/03/08 02:10:42;;;;;;;5.97;3.25;;;;;;;-1.75;51.67;99901.94;4805419;29;20050;-76
2024/03/08 02:13:10;;;;;;;4.65;2.92;;;;;;;-1.63;51.50;99922.88;4795078;29;20050;-77
2024/03/08 02:15:56;;;;;;;6.45;3.35;;;;;;;-1.54;51.69;99948.78;4792265;29;20049;-76
2024/03/08 02:18:43;;;;;;;4.90;3.13;;;;;;;-2.01;51.83;99873.63;4783081;29;20510;-77
2024/03/08 02:21:09;;;;;;;5.70;3.08;;;;;;;-1.89;52.24;99907.34;4805712;29;20126;-76
2024/03/08 02:23:37;;;;;;;5.50;3.42;;;;;;;-1.78;51.97;99928.22;4790728;29;20055;-77
2024/03/08 02:26:04;;;;;;;7.43;3.42;;;;;;;-1.87;51.97;99923.56;4776454;29;20137;-77
2024/03/08 02:28:31;;;;;;;5.93;3.50;;;;;;;-2.09;51.82;99895.38;4793499;29;20187;-76
2024/03/08 02:30:57;;;;;;;6.00;3.20;;;;;;;-2.12;51.91;99912.31;4789804;29;21270;-77
2024/03/08 02:33:24;;;;;;;7.93;3.17;;;;;;;-2.52;51.94;99867.19;4806990;29;20054;-77
2024/03/08 02:35:50;;;;;;;5.95;3.20;;;;;;;-3.15;52.01;99778.59;4782652;29;20059;-79
2024/03/08 02:38:19;;;;;;;5.95;3.60;;;;;;;-3.03;52.44;99812.28;4737263;30;20055;-78
2024/03/08 02:40:47;;;;;;;6.40;3.15;;;;;;;-2.89;52.36;99835.84;4769123;30;20594;-78
2024/03/08 02:43:15;;;;;;;7.45;3.08;;;;;;;-2.91;52.60;99846.75;4781859;30;20075;-77
2024/03/08 02:45:45;;;;;;;7.72;3.88;;;;;;;-3.06;52.89;99826.53;4781678;30;20146;-77
2024/03/08 02:48:12;;;;;;;5.65;3.13;;;;;;;-3.42;52.79;99768.03;4781948;30;20051;-77
2024/03/08 02:50:42;;;;;;;7.30;2.97;;;;;;;-3.21;52.60;99806.34;4783519;30;20051;-78
2024/03/08 02:53:09;;;;;;;7.25;3.55;;;;;;;-3.12;52.78;99828.81;4782980;29;20075;-78
2024/03/08 02:55:37;;;;;;;7.93;3.00;;;;;;;-2.82;53.03;99895.56;4784611;30;20039;-79
2024/03/08 02:58:09;;;;;;;5.72;3.25;;;;;;;-2.84;52.71;99887.00;4785923;30;20108;-78
2024/03/08 03:00:37;;;;;;;4.40;2.50;;;;;;;-2.94;53.40;99882.25;4785043;30;20074;-78
2024/03/08 03:03:03;;;;;;;7.07;3.25;;;;;;;-3.19;53.34;99841.25;4771645;30;20173;-77
2024/03/08 03:05:30;;;;;;;8.15;3.22;;;;;;;-2.60;53.48;99905.06;4766104;30;20035;-77
2024/03/08 03:07:58;;;;;;;8.60;3.25;;;;;;;-2.68;53.54;99867.31;4751475;30;20145;-76
2024/03/08 03:10:24;;;;;;;5.93;3.45;;;;;;;-2.57;53.45;99855.94;4781832;30;20043;-75
2024/03/08 03:12:51;;;;;;;5.68;3.15;;;;;;;-2.69;53.38;99827.34;4781497;30;20044;-79
2024/03/08 03:15:17;;;;;;;8.10;3.30;;;;;;;-2.21;53.22;99871.09;4766990;30;20090;-77
2024/03/08 03:17:50;;;;;;;5.22;3.13;;;;;;;-2.03;53.25;99875.25;4783143;30;20043;-77
2024/03/08 03:20:26;;;;;;;7.78;3.03;;;;;;;-2.33;52.53;99812.81;4782549;30;20047;-76
2024/03/08 03:22:52;;;;;;;7.72;3.63;;;;;;;-1.89;52.79;99879.28;4752817;30;20035;-76
2024/03/08 03:25:24;;;;;;;6.55;3.60;;;;;;;-2.48;52.48;99799.41;4780749;30;20047;-76
2024/03/08 03:27:52;;;;;;;;;;;;;;;-2.04;53.03;99869.28;4782537;30;20126;-76
2024/03/08 03:30:21;;;;;;;5.95;3.20;;;;;;;-2.71;52.53;99773.78;4781863;29;19929;-78
2024/03/08 03:32:51;;;;;;;6.38;2.80;;;;;;;-2.78;52.74;99776.84;4767023;30;20039;-77
2024/03/08 03:35:20;;;;;;;7.45;3.20;;;;;;;-2.38;52.94;99854.19;4765145;29;20166;-76
2024/03/08 03:40:52;;;;;;;6.20;3.60;;;;;;;-2.85;52.82;99795.19;4714753;30;20064;-78
2024/03/08 03:43:18;;;;;;;5.50;3.00;;;;;;;-2.43;53.21;99872.72;4773484;30;20296;-79
2024/03/08 03:45:49;;;;;;;5.97;3.55;;;;;;;-2.84;53.23;99802.94;4764672;30;20502;-82
2024/03/08 03:48:16;;;;;;;7.53;3.08;;;;;;;-3.61;52.75;99680.66;4767944;30;20505;-80
2024/03/08 03:50:44;;;;;;;7.88;2.97;;;;;;;-2.63;53.27;99850.56;4769219;30;20047;-78
2024/03/08 03:53:13;;;;;;;7.00;4.00;;;;;;;-3.80;53.05;99649.28;4771785;30;20062;-81
2024/03/08 03:55:39;;;;;;;7.40;3.40;;;;;;;-3.23;53.40;99742.63;4742929;30;20066;-77
2024/03/08 03:58:05;;;;;;;6.57;3.15;;;;;;;-2.63;53.25;99848.00;4780262;30;20515;-75
2024/03/08 04:00:32;;;;;;;7.15;3.63;;;;;;;-3.71;53.50;99679.38;4765583;30;20043;-76
2024/03/08 04:03:00;;;;;;;8.20;3.65;;;;;;;-2.76;53.85;99809.22;4764278;30;20071;-75
2024/03/08 04:05:26;;;;;;;6.90;3.70;;;;;;;-3.74;53.94;99640.19;4752654;30;20584;-75
2024/03/08 04:07:52;;;;;;;5.70;3.10;;;;;;;-3.00;53.43;99735.16;4765932;30;20510;-79
2024/03/08 04:10:19;;;;;;;6.13;3.33;;;;;;;-2.68;53.74;99768.81;4770936;30;20711;-81
2024/03/08 04:12:46;;;;;;;6.65;3.55;;;;;;;-2.51;53.77;99763.59;4769987;30;20047;-80
2024/03/08 04:15:12;;;;;;;8.10;3.08;;;;;;;-3.12;53.56;99637.88;4783503;30;20051;-75
2024/03/08 04:17:38;;;;;;;5.88;3.10;;;;;;;-2.27;53.81;99769.75;4781934;30;20047;-77
2024/03/08 04:20:09;;;;;;;7.30;3.25;;;;;;;-2.10;53.56;99797.63;4781055;30;20039;-73
2024/03/08 04:22:36;;;;;;;;;;;;;;;-1.82;53.89;99829.38;4780544;30;20039;-74
2024/03/08 04:25:03;;;;;;;6.13;3.28;;;;;;;-2.29;53.20;99732.22;4781246;30;19968;-77
2024/03/08 04:27:29;;;;;;;9.38;3.05;;;;;;;-2.25;53.40;99739.19;4780516;30;20046;-75
2024/03/08 04:29:56;;;;;;;6.95;3.22;;;;;;;-1.73;53.17;99822.09;4779910;30;20055;-75
2024/03/08 04:32:23;;;;;;;5.47;3.35;;;;;;;-2.00;53.51;99769.16;4764924;30;20054;-73
2024/03/08 04:34:49;;;;;;;6.03;3.75;;;;;;;-1.85;53.50;99794.41;4763173;30;20046;-74
2024/03/08 04:37:18;;;;;;;8.00;4.15;;;;;;;-1.60;53.07;99818.38;4792828;29;20076;-74
2024/03/08 04:39:44;;;;;;;6.22;3.40;;;;;;;-1.58;53.15;99826.09;4794802;29;20058;-75
2024/03/08 04:42:13;;;;;;;7.38;3.80;;;;;;;-1.64;53.32;99838.59;4779555;30;20058;-76
2024/03/08 04:44:40;;;;;;;6.05;3.65;;;;;;;-1.67;53.26;99818.94;4765577;30;20395;-76
2024/03/08 04:47:10;;;;;;;6.53;3.75;;;;;;;-2.00;53.09;99770.81;4781308;29;20043;-76
2024/03/08 04:49:36;;;;;;;8.38;4.28;;;;;;;-1.92;52.93;99774.56;4764492;30;20463;-76
2024/03/08 04:52:03;;;;;;;8.35;3.67;;;;;;;-2.07;52.81;99725.44;4780063;30;20051;-76
2024/03/08 04:54:30;;;;;;;5.75;3.53;;;;;;;-1.44;53.37;99819.00;4782560;29;20042;-79
2024/03/08 04:56:57;;;;;;;8.93;3.83;;;;;;;-1.72;53.25;99757.50;4770250;30;20147;-86
2024/03/08 04:59:24;;;;;;;7.60;4.18;;;;;;;-2.05;52.95;99689.03;4764300;29;20129;-85
2024/03/08 05:01:51;;;;;;;7.13;3.78;;;;;;;-1.52;53.02;99795.69;4770861;30;20698;-89
2024/03/08 05:04:18;;;;;;;6.97;4.10;;;;;;;-2.12;52.97;99669.19;4784976;30;20045;-86
2024/03/08 05:07:10;;;;;;;7.85;4.22;;;;;;;-1.20;53.37;99813.97;4812089;29;20043;-88
2024/03/08 05:09:40;;;;;;;8.13;3.92;;;;;;;-1.64;53.14;99739.06;4773715;29;20059;-82
2024/03/08 05:12:07;;;;;;;7.40;4.15;;;;;;;-1.89;53.12;99723.66;4791566;29;20062;-84
2024/03/08 05:14:36;;;;;;;7.43;4.38;;;;;;;-2.53;52.73;99627.59;4778860;30;20049;-84
2024/03/08 05:17:02;;;;;;;6.65;4.20;;;;;;;-2.14;52.92;99697.19;4763547;30;20491;-84
2024/03/08 05:19:30;;;;;;;9.57;4.13;;;;;;;-1.83;53.00;99718.78;4765979;30;20072;-84
2024/03/08 05:21:57;;;;;;;9.57;4.93;;;;;;;-1.59;52.78;99769.06;4777374;30;20102;-82
2024/03/08 05:24:23;;;;;;;8.10;4.68;;;;;;;-2.00;53.64;99733.44;4765707;30;20626;-81
2024/03/08 05:26:50;;;;;;;9.48;4.53;;;;;;;-1.38;53.63;99778.38;4768729;30;20069;-81
2024/03/08 05:29:18;;;;;;;9.43;4.90;;;;;;;-1.13;52.87;99803.19;4773977;30;20043;-78
2024/03/08 05:31:50;;;;;;;8.15;4.35;;;;;;;-1.62;53.49;99715.34;4755909;30;20783;-79
2024/03/08 05:34:16;;;;;;;8.32;4.65;;;;;;;-1.45;53.46;99736.41;4772366;30;20039;-85
2024/03/08 05:36:50;;;;;;;8.50;4.40;;;;;;;-1.30;53.53;99754.03;4776803;30;20063;-81
2024/03/08 05:39:30;;;;;;;7.80;4.63;;;;;;;-0.95;53.42;99803.00;4789653;30;20054;-84
2024/03/08 05:41:57;;;;;;;9.05;4.93;;;;;;;-1.11;53.12;99787.91;4757521;30;20296;-80
2024/03/08 05:44:23;;;;;;;9.25;4.82;;;;;;;-1.72;53.51;99691.16;4766574;30;20078;-82
2024/03/08 05:46:50;;;;;;;10.35;4.50;;;;;;;-1.47;53.16;99725.28;4756261;30;20049;-77
2024/03/08 05:49:18;;;;;;;12.52;4.65;;;;;;;-1.45;52.90;99733.00;4767620;30;20062;-81
2024/03/08 05:51:44;;;;;;;9.57;4.97;;;;;;;-1.37;53.48;99737.59;4763681;30;20046;-81
2024/03/08 05:54:11;;;;;;;10.18;5.05;;;;;;;-1.30;53.45;99754.03;4792472;29;20530;-84
2024/03/08 05:56:42;;;;;;;9.98;5.05;;;;;;;-2.01;53.24;99628.78;4765653;30;20606;-79
2024/03/08 05:59:09;;;;;;;8.85;4.80;;;;;;;-1.43;53.75;99722.03;4766858;30;20077;-81
2024/03/08 06:01:36;;;;;;;8.70;4.68;;;;;;;-1.33;53.85;99725.81;4779400;29;20043;-81
2024/03/08 06:04:03;;;;;;;8.25;5.00;;;;;;;-1.97;53.70;99608.56;4781356;30;20138;-82
2024/03/08 06:06:29;;;;;;;10.43;5.03;;;;;;;-1.21;53.69;99750.94;4752577;30;20047;-84
2024/03/08 06:08:59;;;;;;;8.70;4.68;;;;;;;-1.53;54.21;99690.19;4769418;30;20047;-82
2024/03/08 06:11:30;;;;;;;8.40;4.60;;;;;;;-0.87;53.95;99804.97;4770152;30;20043;-79
2024/03/08 06:14:02;;;;;;;9.50;4.90;;;;;;;-1.22;54.82;99719.44;4781172;29;20051;-78
2024/03/08 06:16:29;;;;;;;9.27;4.45;;;;;;;-1.32;54.27;99696.06;4766192;30;20050;-81
2024/03/08 06:18:57;;;;;;;10.10;5.20;;;;;;;-0.72;54.66;99764.66;4785122;30;20162;-78
2024/03/08 06:21:25;;;;;;;8.30;4.65;;;;;;;-0.63;54.64;99771.78;4767301;30;20269;-78
2024/03/08 06:23:55;;;;;;;9.90;5.15;;;;;;;-0.46;54.32;99763.03;4753881;30;20088;-81
2024/03/08 06:26:21;;;;;;;8.20;4.65;;;;;;;-0.40;54.25;99777.72;4755035;30;20035;-79
2024/03/08 06:28:49;;;;;;;7.90;4.53;;;;;;;-0.32;53.68;99781.38;4756711;30;20503;-78
2024/03/08 06:31:18;;;;;;;9.25;4.63;;;;;;;-1.37;54.72;99615.06;4767846;30;20039;-78
2024/03/08 06:33:44;;;;;;;6.97;4.15;;;;;;;-0.66;54.39;99695.88;4766442;30;20089;-78
2024/03/08 06:36:11;;;;;;;6.78;4.82;;;;;;;-0.50;54.13;99709.16;4761257;29;20067;-82
2024/03/08 06:38:44;;;;;;;10.68;5.03;;;;;;;0.15;53.96;99782.94;4787780;29;20510;-82
2024/03/08 06:41:15;;;;;;;8.85;4.45;;;;;;;-0.20;54.56;99713.59;4789740;29;20085;-81
2024/03/08 06:43:51;;;;;;;11.18;4.72;;;;;;;-0.22;54.60;99690.50;4789638;29;20062;-83
2024/03/08 06:46:18;;;;;;;9.57;4.80;;;;;;;-0.16;53.25;99689.84;4800585;29;20036;-80
2024/03/08 06:48:45;;;;;;;8.38;4.93;;;;;;;0.42;54.02;99759.06;4800113;29;20077;-72
2024/03/08 06:51:12;;;;;;;8.18;4.43;;;;;;;0.34;54.05;99735.78;4781136;29;20138;-75
2024/03/08 06:53:38;;;;;;;8.65;4.38;;;;;;;0.09;54.25;99695.75;4782572;29;20046;-71
2024/03/08 06:56:04;;;;;;;8.65;4.68;;;;;;;0.52;54.04;99749.97;4797801;29;20043;-73
2024/03/08 06:58:30;;;;;;;8.10;4.63;;;;;;;0.34;53.55;99719.53;4794985;29;20579;-71
2024/03/08 07:01:00;;;;;;;10.70;5.03;;;;;;;0.82;53.66;99774.81;4797711;29;20099;-72
2024/03/08 07:03:27;;;;;;;8.95;5.03;;;;;;;0.42;53.43;99705.31;4786562;29;20046;-72
2024/03/08 07:05:53;;;;;;;8.80;4.65;;;;;;;0.95;53.06;99782.03;4769651;29;20046;-73
2024/03/08 07:08:20;;;;;;;9.88;5.13;;;;;;;1.17;53.29;99787.78;4773503;29;20074;-76
2024/03/08 07:10:49;;;;;;;9.45;4.75;;;;;;;1.17;52.39;99773.28;4798238;29;20049;-77
2024/03/08 07:13:17;;;;;;;7.97;4.90;;;;;;;0.99;51.95;99722.34;4799221;29;20071;-73
2024/03/08 07:15:45;;;;;;;11.23;5.20;;;;;;;0.90;52.54;99714.38;4787507;29;20042;-74
2024/03/08 07:18:14;;;;;;;8.18;4.60;;;;;;;0.98;52.11;99707.81;4785390;29;20069;-72
2024/03/08 07:20:43;;;;;;;8.93;4.72;;;;;;;1.47;52.19;99776.66;4796089;29;20053;-73
2024/03/08 07:23:10;;;;;;;10.18;5.30;;;;;;;1.47;51.72;99790.34;4781986;29;20059;-76
2024/03/08 07:25:38;;;;;;;9.75;5.13;;;;;;;1.31;52.27;99748.03;4766690;29;20046;-75
2024/03/08 07:28:06;;;;;;;9.68;4.97;;;;;;;1.28;51.51;99757.31;4793886;29;20526;-75
2024/03/08 07:31:08;;;;;;;9.85;5.10;;;;;;;1.45;51.31;99779.16;4801930;29;20413;-73
2024/03/08 07:33:22;;;;;;;8.55;4.82;;;;;;;1.52;51.37;99771.66;4780567;29;20065;-76
2024/03/08 07:35:51;;;;;;;9.10;5.10;;;;;;;1.29;51.80;99723.16;4767573;30;20807;-74
2024/03/08 07:38:18;;;;;;;9.55;4.75;;;;;;;1.58;51.07;99751.31;4766999;30;20062;-76
2024/03/08 07:40:44;;;;;;;9.48;5.38;;;;;;;1.79;51.76;99789.47;4770648;30;20050;-76
2024/03/08 07:43:11;;;;;;;9.68;5.28;;;;;;;1.93;51.08;99784.72;4785839;30;20062;-73
2024/03/08 07:45:38;;;;;;;8.48;5.30;;;;;;;1.77;51.02;99743.25;4783060;30;20383;-72
2024/03/08 07:48:09;;;;;;;9.35;5.15;;;;;;;1.94;50.94;99766.81;4767731;30;20055;-69
2024/03/08 07:50:40;;;;;;;10.43;5.55;;;;;;;2.09;50.74;99775.72;4784011;30;20043;-76
2024/03/08 07:53:07;;;;;;;12.18;5.68;;;;;;;2.11;50.76;99776.63;4782034;29;20142;-73
2024/03/08 07:55:35;;;;;;;12.18;5.50;;;;;;;2.19;50.75;99761.41;4767968;30;20124;-75
2024/03/08 07:58:02;;;;;;;8.68;5.15;;;;;;;2.05;50.15;99732.81;4768523;30;20588;-73
2024/03/08 08:00:31;;;;;;;9.52;5.38;;;;;;;1.96;50.44;99712.94;4767725;30;20518;-77
2024/03/08 08:02:57;;;;;;;10.25;5.00;;;;;;;2.03;50.09;99684.03;4752274;30;20062;-75
2024/03/08 08:05:23;;;;;;;8.95;5.45;;;;;;;2.17;50.33;99686.91;4780202;30;20070;-75
2024/03/08 08:07:52;;;;;;;8.05;4.95;;;;;;;2.79;50.10;99759.34;4781042;30;20132;-80
2024/03/08 08:10:21;;;;;;;9.13;5.13;;;;;;;2.62;49.70;99687.03;4753328;30;20491;-80
2024/03/08 08:12:54;;;;;;;11.95;5.40;;;;;;;3.09;49.27;99746.28;4783853;29;20147;-76
2024/03/08 08:15:20;;;;;;;8.98;5.13;;;;;;;2.89;48.60;99686.75;4758130;30;20281;-81
2024/03/08 08:17:51;;;;;;;9.20;5.85;;;;;;;2.99;49.18;99680.09;4772609;30;20108;-76
2024/03/08 08:20:18;;;;;;;9.23;5.35;;;;;;;2.98;48.56;99661.22;4780887;30;20046;-77
2024/03/08 08:22:44;;;;;;;8.43;5.05;;;;;;;3.20;48.59;99679.63;4764072;30;20047;-81
2024/03/08 08:25:17;;;;;;;9.27;5.35;;;;;;;3.00;48.66;99631.25;4764131;30;20047;-76
2024/03/08 08:27:46;;;;;;;10.25;5.82;;;;;;;3.28;48.08;99665.22;4764660;30;20104;-79
2024/03/08 08:30:13;;;;;;;10.63;6.10;;;;;;;3.67;47.89;99698.47;4767177;30;20044;-76
2024/03/08 08:32:39;;;;;;;11.85;5.40;;;;;;;4.03;47.69;99747.16;4765358;30;20051;-71
2024/03/08 08:35:11;;;;;;;8.73;5.47;;;;;;;3.53;47.62;99683.69;4764653;29;20062;-79
2024/03/08 08:37:39;;;;;;;9.98;5.18;;;;;;;4.19;48.14;99739.72;4771870;30;20074;-79
2024/03/08 08:40:09;;;;;;;8.32;5.13;;;;;;;3.88;46.73;99696.28;4780042;30;20035;-75
2024/03/08 08:42:39;;;;;;;10.02;5.70;;;;;;;3.65;47.22;99682.16;4774244;30;20461;-83
2024/03/08 08:45:09;;;;;;;10.85;6.00;;;;;;;3.98;46.67;99742.78;4767850;30;20051;-78
2024/03/08 08:47:37;;;;;;;9.50;6.07;;;;;;;3.86;47.35;99748.59;4738493;30;20071;-76
2024/03/08 08:50:04;;;;;;;11.45;6.57;;;;;;;3.49;47.57;99687.03;4781401;30;20043;-79
2024/03/08 08:52:32;;;;;;;11.65;5.63;;;;;;;3.86;47.46;99702.25;4773160;30;20429;-80
2024/03/08 08:55:03;;;;;;;13.77;6.22;;;;;;;4.05;46.23;99687.97;4762347;30;20102;-86
2024/03/08 08:57:32;;;;;;;10.60;6.20;;;;;;;4.18;46.93;99695.03;4768715;30;20058;-81
2024/03/08 09:00:00;;;;;;;8.63;5.43;;;;;;;4.42;46.35;99716.88;4771232;30;20500;-78
2024/03/08 09:02:26;;;;;;;9.98;6.10;;;;;;;4.46;45.92;99713.50;4786023;30;20054;-82
2024/03/08 09:04:52;;;;;;;12.43;6.15;;;;;;;4.14;46.71;99670.06;4756258;30;20051;-77
2024/03/08 09:07:18;;;;;;;9.68;6.00;;;;;;;4.31;46.50;99669.44;4767019;30;20050;-76
2024/03/08 09:09:45;;;;;;;11.18;6.13;;;;;;;4.57;45.54;99716.22;4771340;30;20047;-80
2024/03/08 09:12:14;;;;;;;10.23;6.30;;;;;;;4.70;46.67;99730.16;4775062;30;20166;-81
2024/03/08 09:14:41;;;;;;;14.02;6.43;;;;;;;4.96;46.12;99730.50;4768159;30;20104;-84
2024/03/08 09:17:08;;;;;;;12.15;6.25;;;;;;;4.56;45.50;99618.25;4765865;30;20039;-78
2024/03/08 09:19:36;;;;;;;9.15;6.28;;;;;;;5.15;45.40;99649.91;4778595;30;20043;-81
2024/03/08 09:22:04;;;;;;;10.13;6.43;;;;;;;5.82;44.41;99721.97;4767638;30;20058;-80
2024/03/08 09:24:30;;;;;;;8.77;5.68;;;;;;;5.83;44.95;99709.94;4781375;30;20098;-80
2024/03/08 09:26:58;;;;;;;8.77;5.38;;;;;;;6.09;44.57;99709.31;4750248;30;20075;-73
2024/03/08 09:29:24;;;;;;;10.57;5.97;;;;;;;5.83;44.47;99655.72;4766730;30;20051;-85
2024/03/08 09:31:51;;;;;;;9.88;6.30;;;;;;;5.77;43.51;99676.31;4752846;30;20549;-78
2024/03/08 09:34:18;;;;;;;11.02;6.47;;;;;;;5.56;43.92;99655.47;4754666;30;20391;-76
2024/03/08 09:36:45;;;;;;;10.52;6.22;;;;;;;6.51;44.03;99714.78;4768531;29;20078;-83
2024/03/08 09:39:16;;;;;;;9.90;6.30;;;;;;;6.66;43.74;99708.84;4776615;29;20051;-81
2024/03/08 09:41:43;;;;;;;11.13;6.32;;;;;;;6.53;42.99;99688.06;4784820;29;20047;-79
2024/03/08 09:44:10;;;;;;;8.95;5.88;;;;;;;6.73;43.46;99692.50;4779056;29;20054;-80
2024/03/08 09:46:36;;;;;;;10.50;6.45;;;;;;;6.33;43.44;99629.38;4796127;29;21360;-79
2024/03/08 09:49:03;;;;;;;9.55;6.40;;;;;;;6.30;42.81;99637.09;4796090;29;20043;-77
2024/03/08 09:51:35;;;;;;;10.30;5.72;;;;;;;6.94;42.69;99709.84;4778525;29;20042;-77
2024/03/08 09:54:04;;;;;;;12.48;6.93;;;;;;;7.24;43.36;99688.38;4782609;29;20051;-77
2024/03/08 09:56:35;;;;;;;12.48;7.40;;;;;;;7.98;42.62;99694.53;4796280;29;20043;-77
2024/03/08 10:01:34;;;;;;;10.10;6.53;;;;;;;8.33;41.25;99705.75;4767931;29;20043;-79
2024/03/08 10:04:02;;;;;;;13.18;6.88;;;;;;;8.12;41.02;99695.38;4802371;29;20043;-79
2024/03/08 10:06:28;;;;;;;10.02;6.38;;;;;;;8.38;41.03;99704.03;4797159;29;20104;-78
2024/03/08 10:08:55;;;;;;;9.52;6.47;;;;;;;8.83;40.80;99701.34;4786989;29;20039;-76
2024/03/08 10:11:21;;;;;;;9.07;6.60;;;;;;;8.92;40.67;99633.84;4784631;29;20043;-76
2024/03/08 10:13:50;;;;;;;9.60;6.40;;;;;;;9.13;39.83;99603.47;4798318;29;20504;-80
2024/03/08 10:16:19;;;;;;;12.55;7.70;;;;;;;9.04;39.67;99640.72;4782042;29;20043;-77
2024/03/08 10:18:46;;;;;;;10.77;6.07;;;;;;;8.28;39.50;99607.22;4782201;29;20046;-76
2024/03/08 10:21:15;;;;;;;11.13;6.47;;;;;;;8.33;39.90;99646.13;4785906;29;20605;-76
2024/03/08 10:23:44;;;;;;;11.70;6.82;;;;;;;7.99;39.93;99605.56;4766337;29;20057;-75
2024/03/08 10:26:17;;;;;;;11.55;6.38;;;;;;;8.23;39.87;99642.69;4785366;29;20119;-76
2024/03/08 10:28:52;;;;;;;11.98;6.45;;;;;;;7.93;39.82;99639.25;4766150;29;20138;-73
2024/03/08 10:31:20;;;;;;;10.43;6.00;;;;;;;8.10;39.95;99691.09;4780033;29;20046;-73
2024/03/08 10:33:46;;;;;;;11.40;6.18;;;;;;;7.61;39.98;99609.06;4762681;29;20058;-74
2024/03/08 10:36:14;;;;;;;11.88;6.50;;;;;;;7.86;40.16;99658.25;4784778;29;20078;-74
2024/03/08 10:38:46;;;;;;;11.93;6.43;;;;;;;7.96;40.27;99691.09;4782605;29;21175;-73
2024/03/08 10:41:13;;;;;;;9.07;6.45;;;;;;;7.74;40.14;99670.34;4799409;29;20062;-74
2024/03/08 10:44:07;;;;;;;8.82;6.15;;;;;;;7.64;40.38;99685.03;4783606;29;20051;-74
2024/03/08 10:46:54;;;;;;;9.65;6.18;;;;;;;7.01;40.53;99576.19;4781028;29;20051;-74
2024/03/08 10:49:30;;;;;;;9.88;6.60;;;;;;;7.73;40.61;99691.94;4779276;29;20196;-77
2024/03/08 10:51:58;;;;;;;10.52;6.32;;;;;;;7.32;40.35;99640.97;4781532;29;20043;-76
2024/03/08 10:54:26;;;;;;;11.65;6.75;;;;;;;7.53;40.60;99687.59;4798315;29;20050;-74
2024/03/08 10:56:55;;;;;;;12.60;6.43;;;;;;;6.86;40.60;99636.50;4783269;29;20036;-76
2024/03/08 10:59:21;;;;;;;10.10;6.28;;;;;;;6.69;40.87;99615.78;4798147;29;20058;-77
2024/03/08 11:01:47;;;;;;;10.50;7.50;;;;;;;7.06;41.25;99691.75;4782322;29;20529;-73
2024/03/08 11:04:13;;;;;;;10.98;6.65;;;;;;;6.68;41.14;99621.78;4783983;29;20090;-74
2024/03/08 11:06:45;;;;;;;9.40;6.53;;;;;;;7.01;41.46;99693.50;4769316;29;20058;-75
2024/03/08 11:09:31;;;;;;;10.73;6.47;;;;;;;6.65;41.78;99629.53;4781154;29;20054;-73
2024/03/08 11:12:32;;;;;;;9.85;6.60;;;;;;;6.88;41.51;99671.88;4783931;29;20047;-73
2024/03/08 11:15:18;;;;;;;9.25;6.18;;;;;;;7.09;42.17;99688.34;4792845;29;20558;-77
2024/03/08 11:17:47;;;;;;;10.35;6.80;;;;;;;7.05;41.56;99697.81;4796119;29;20047;-76
2024/03/08 11:20:22;;;;;;;12.18;6.43;;;;;;;6.36;41.32;99633.72;4802202;29;20043;-76
2024/03/08 11:22:55;;;;;;;11.65;6.68;;;;;;;6.56;42.52;99687.25;4797589;29;20039;-77
2024/03/08 11:25:45;;;;;;;9.68;6.35;;;;;;;6.12;42.59;99614.63;4784528;29;20226;-76
2024/03/08 11:28:21;;;;;;;10.07;5.95;;;;;;;6.52;42.61;99688.91;4783484;29;20096;-76
2024/03/08 11:30:58;;;;;;;11.48;6.97;;;;;;;6.31;42.88;99684.50;4799532;29;20150;-75
2024/03/08 11:33:28;;;;;;;11.10;7.35;;;;;;;6.39;42.66;99687.13;4784030;29;20047;-76
2024/03/08 11:36:11;;;;;;;9.38;5.90;;;;;;;5.96;42.61;99602.44;4781623;29;20095;-76
2024/03/08 11:38:42;;;;;;;9.60;5.93;;;;;;;6.32;42.91;99694.84;4764282;30;20152;-75
2024/03/08 11:41:08;;;;;;;11.63;7.13;;;;;;;5.78;42.98;99591.09;4765704;30;20044;-75
2024/03/08 11:43:35;;;;;;;11.35;6.60;;;;;;;5.94;43.08;99623.06;4779405;29;20069;-74
2024/03/08 11:46:45;;;;;;;;;;;;;;;;;;;;;
2024/03/08 11:49:19;;;;;;;11.23;6.20;;;;;;;5.68;43.09;99548.84;4771868;30;20054;-86